Time;durP1;ratioP1;P1;durP2;ratioP2;P2;SDS_P1;SDS_P2;PMS_P1;PMS_P2;Temp;Humidity;BMP_temperature;BMP_pressure;BME280_temperature;BME280_humidity;BME280_pressure;Samples;Min_cycle;Max_cycle;Signal;HPM_P1;HPM_P2
2022/07/23 00:00:54;;;;;;;11.88;6.18;;;;;;;22.28;59.13;95127.31;5092152;28;20201;-78
2022/07/23 00:03:20;;;;;;;12.90;6.53;;;;;;;22.22;59.10;95131.09;5092453;28;20182;-78
2022/07/23 00:05:45;;;;;;;13.57;6.85;;;;;;;22.02;59.68;95116.72;5092324;28;20628;-78
2022/07/23 00:08:11;;;;;;;11.43;6.38;;;;;;;21.94;59.42;95111.09;5091518;28;20280;-78
2022/07/23 00:10:37;;;;;;;17.92;7.47;;;;;;;22.08;59.53;95142.44;5091951;28;20181;-78
2022/07/23 00:13:02;;;;;;;13.05;6.32;;;;;;;22.04;59.42;95137.91;5092051;28;20182;-78
2022/07/23 00:15:28;;;;;;;10.18;6.28;;;;;;;21.98;59.66;95133.63;5092287;28;20180;-78
2022/07/23 00:17:54;;;;;;;11.52;6.35;;;;;;;22.05;59.33;95136.81;5092391;28;20174;-78
2022/07/23 00:20:20;;;;;;;10.20;6.72;;;;;;;21.87;59.40;95124.81;5090719;28;20178;-78
2022/07/23 00:22:50;;;;;;;12.00;7.20;;;;;;;21.93;59.84;95145.16;5090651;28;20185;-78
2022/07/23 00:25:15;;;;;;;12.10;7.45;;;;;;;21.94;59.85;95144.06;5092551;28;20252;-78
2022/07/23 00:27:41;;;;;;;15.73;7.03;;;;;;;21.92;59.67;95143.53;5091807;28;20170;-78
2022/07/23 00:30:07;;;;;;;11.02;6.88;;;;;;;21.94;59.90;95154.00;5092154;28;20174;-78
2022/07/23 00:32:47;;;;;;;11.63;6.15;;;;;;;21.94;59.72;95145.94;5091670;28;20221;-78
2022/07/23 00:35:13;;;;;;;16.60;6.75;;;;;;;21.94;59.60;95154.00;5090499;28;20659;-78
2022/07/23 00:37:38;;;;;;;9.10;6.15;;;;;;;21.95;59.09;95150.25;5091841;28;20197;-78
2022/07/23 00:40:04;;;;;;;15.95;6.47;;;;;;;21.92;59.64;95150.78;5091781;28;20168;-78
2022/07/23 00:42:31;;;;;;;15.60;6.28;;;;;;;21.93;60.05;95147.03;5091415;28;20329;-78
2022/07/23 00:44:56;;;;;;;11.23;6.15;;;;;;;21.91;59.56;95149.16;5091803;28;20180;-78
2022/07/23 00:47:22;;;;;;;9.98;5.55;;;;;;;21.83;59.43;95153.22;5091751;28;20174;-78
2022/07/23 00:49:48;;;;;;;27.13;13.30;;;;;;;21.76;59.39;95152.72;5091579;28;20165;-78
2022/07/23 00:52:13;;;;;;;32.30;18.60;;;;;;;21.77;59.72;95157.00;5091834;28;20522;-78
2022/07/23 00:54:39;;;;;;;15.48;8.90;;;;;;;21.77;59.49;95149.78;5091843;28;20659;-78
2022/07/23 00:57:04;;;;;;;13.30;6.80;;;;;;;21.68;59.17;95143.38;5091376;28;20170;-78
2022/07/23 00:59:30;;;;;;;11.63;6.25;;;;;;;21.74;59.34;95157.53;5091616;28;20180;-78
2022/07/23 01:01:55;;;;;;;13.85;6.32;;;;;;;21.71;59.39;95152.72;5091211;28;20197;-78
2022/07/23 01:04:21;;;;;;;12.73;5.53;;;;;;;21.68;59.42;95153.28;5091606;28;20558;-78
2022/07/23 01:06:46;;;;;;;15.88;5.78;;;;;;;21.63;59.65;95153.28;5091541;28;20253;-78
2022/07/23 01:09:13;;;;;;;10.52;6.63;;;;;;;21.63;59.57;95154.09;5091337;28;20174;-78
2022/07/23 01:11:39;;;;;;;8.93;5.65;;;;;;;21.59;60.00;95158.41;5091503;28;20546;-78
2022/07/23 01:14:22;;;;;;;15.27;5.90;;;;;;;21.52;60.52;95146.38;5091519;28;20178;-78
2022/07/23 01:16:49;;;;;;;8.18;6.00;;;;;;;21.28;60.75;95114.78;5091257;28;20676;-78
2022/07/23 01:19:16;;;;;;;14.80;6.05;;;;;;;21.40;60.94;95149.31;5092420;28;20564;-78
2022/07/23 01:21:45;;;;;;;9.80;5.40;;;;;;;21.34;61.17;95150.41;5095371;28;20194;-78
2022/07/23 01:24:12;;;;;;;11.70;6.63;;;;;;;21.35;60.96;95147.47;5095122;28;20454;-78
2022/07/23 01:26:40;;;;;;;13.10;6.25;;;;;;;21.37;61.43;95141.81;5095451;28;20198;-78
2022/07/23 01:29:06;;;;;;;13.85;5.85;;;;;;;21.34;61.41;95153.09;5094947;28;20182;-78
2022/07/23 01:31:31;;;;;;;11.60;6.38;;;;;;;21.29;61.79;95145.84;5095177;28;20527;-78
2022/07/23 01:33:57;;;;;;;12.07;6.47;;;;;;;21.31;61.89;95150.94;5094946;28;20213;-78
2022/07/23 01:36:23;;;;;;;21.42;7.32;;;;;;;21.31;61.93;95145.59;5095139;28;20276;-78
2022/07/23 01:38:48;;;;;;;30.13;17.40;;;;;;;21.21;61.93;95130.34;5094960;28;20223;-78
2022/07/23 01:41:14;;;;;;;25.55;14.60;;;;;;;21.24;61.76;95145.88;5094861;28;20751;-78
2022/07/23 01:43:39;;;;;;;28.38;16.45;;;;;;;21.24;61.68;95143.19;5094685;28;20166;-78
2022/07/23 01:46:05;;;;;;;22.80;12.05;;;;;;;21.20;61.73;95146.66;5094966;28;20174;-78
2022/07/23 01:48:31;;;;;;;19.08;8.70;;;;;;;21.19;62.23;95145.09;5094809;28;20252;-78
2022/07/23 01:50:56;;;;;;;15.30;8.20;;;;;;;21.14;62.52;95147.72;5094976;28;20176;-78
2022/07/23 01:53:21;;;;;;;13.40;7.75;;;;;;;21.09;62.43;95144.00;5094530;28;20172;-78
2022/07/23 01:55:47;;;;;;;19.55;7.40;;;;;;;21.06;62.66;95141.84;5094937;28;20170;-78
2022/07/23 01:58:13;;;;;;;16.25;8.18;;;;;;;21.05;62.35;95136.75;5094285;28;20177;-78
2022/07/23 02:00:38;;;;;;;17.02;8.68;;;;;;;21.02;62.75;95142.63;5094331;28;20192;-78
2022/07/23 02:03:04;;;;;;;9.65;6.45;;;;;;;21.02;62.92;95146.13;5094440;28;20189;-78
2022/07/23 02:05:31;;;;;;;11.88;6.25;;;;;;;21.03;63.07;95144.25;5094512;28;20567;-78
2022/07/23 02:07:57;;;;;;;17.33;9.20;;;;;;;21.00;63.00;95144.81;5093191;28;20602;-78
2022/07/23 02:10:23;;;;;;;31.40;16.83;;;;;;;20.82;63.06;95114.03;5094603;28;20178;-78
2022/07/23 02:12:48;;;;;;;16.42;9.38;;;;;;;20.98;63.00;95142.38;5093126;28;20293;-78
2022/07/23 02:15:14;;;;;;;16.30;8.98;;;;;;;20.94;62.98;95145.84;5093915;28;20197;-78
2022/07/23 02:17:39;;;;;;;16.17;7.32;;;;;;;20.92;63.28;95145.34;5092758;28;20181;-78
2022/07/23 02:20:07;;;;;;;11.55;7.88;;;;;;;20.86;63.52;95151.75;5094190;28;20259;-78
2022/07/23 02:22:32;;;;;;;15.55;8.20;;;;;;;20.82;63.38;95145.34;5094433;28;20242;-78
2022/07/23 02:24:57;;;;;;;14.43;8.65;;;;;;;20.82;63.89;95148.81;5093936;28;20252;-78
2022/07/23 02:27:23;;;;;;;17.70;9.13;;;;;;;20.76;63.68;95141.06;5094321;28;20174;-78
2022/07/23 02:29:49;;;;;;;13.27;9.07;;;;;;;20.82;63.62;95148.00;5093347;28;20226;-78
2022/07/23 02:32:14;;;;;;;20.30;9.77;;;;;;;20.77;63.99;95146.13;5093846;28;20217;-78
2022/07/23 02:34:40;;;;;;;15.63;9.13;;;;;;;20.73;64.04;95144.25;5093865;28;20173;-78
2022/07/23 02:37:05;;;;;;;20.05;7.85;;;;;;;20.67;64.44;95144.25;5094004;28;20183;-78
2022/07/23 02:39:31;;;;;;;10.40;7.10;;;;;;;20.63;64.00;95139.69;5093763;28;20176;-78
2022/07/23 02:41:56;;;;;;;17.30;8.35;;;;;;;20.62;64.77;95152.28;5092202;28;20205;-78
2022/07/23 02:44:22;;;;;;;14.55;7.80;;;;;;;20.63;64.92;95145.06;5093470;28;20561;-78
2022/07/23 02:46:47;;;;;;;14.55;6.75;;;;;;;20.47;64.70;95120.16;5093703;28;20573;-78
2022/07/23 02:49:12;;;;;;;12.35;7.40;;;;;;;20.60;64.61;95153.59;5092350;28;20264;-78
2022/07/23 02:51:38;;;;;;;15.57;7.13;;;;;;;20.55;64.74;95146.38;5093598;28;20553;-78
2022/07/23 02:54:03;;;;;;;16.42;7.05;;;;;;;20.53;64.80;95161.91;5093808;28;20166;-78
2022/07/23 02:56:29;;;;;;;15.98;7.38;;;;;;;20.49;65.09;95158.16;5093236;28;20173;-78
2022/07/23 02:58:54;;;;;;;10.48;6.45;;;;;;;20.41;64.70;95155.97;5093419;28;20189;-78
2022/07/23 03:01:19;;;;;;;12.45;6.13;;;;;;;20.47;64.93;95164.81;5093672;28;20198;-78
2022/07/23 03:03:45;;;;;;;14.38;5.78;;;;;;;20.45;65.20;95167.75;5092064;28;20169;-78
2022/07/23 03:06:10;;;;;;;12.43;5.93;;;;;;;20.39;65.14;95170.69;5092833;28;20227;-77
2022/07/23 03:08:37;;;;;;;8.60;5.97;;;;;;;20.39;65.55;95176.03;5093432;28;20648;-77
2022/07/23 03:11:02;;;;;;;11.98;6.22;;;;;;;20.34;65.61;95177.63;5092778;28;20182;-78
2022/07/23 03:13:29;;;;;;;20.33;6.80;;;;;;;20.30;65.85;95173.06;5092855;28;20230;-77
2022/07/23 03:15:54;;;;;;;9.27;6.22;;;;;;;20.31;66.00;95177.34;5092777;28;20173;-77
2022/07/23 03:18:20;;;;;;;11.02;6.28;;;;;;;20.33;65.71;95172.50;5092914;28;20665;-77
2022/07/23 03:20:45;;;;;;;18.27;6.35;;;;;;;20.37;65.77;95187.00;5092450;28;20194;-77
2022/07/23 03:23:11;;;;;;;9.27;5.85;;;;;;;20.34;65.74;95191.00;5092548;28;20721;-77
2022/07/23 03:25:36;;;;;;;13.65;6.50;;;;;;;20.34;65.46;95180.31;5092631;28;20177;-78
2022/07/23 03:28:01;;;;;;;15.13;6.45;;;;;;;20.36;65.13;95184.59;5092437;28;20181;-78
2022/07/23 03:30:27;;;;;;;15.77;6.47;;;;;;;20.36;65.47;95187.25;5091023;28;20177;-77
2022/07/23 03:32:52;;;;;;;15.75;6.22;;;;;;;20.33;65.31;95186.69;5087712;28;20228;-77
2022/07/23 03:35:18;;;;;;;19.70;9.93;;;;;;;20.37;65.23;95195.03;5092735;28;20183;-78
2022/07/23 03:37:43;;;;;;;23.48;13.55;;;;;;;20.37;65.17;95183.53;5092559;28;20564;-78
2022/07/23 03:40:09;;;;;;;34.72;18.90;;;;;;;20.39;64.80;95194.78;5092397;28;20230;-78
2022/07/23 03:42:36;;;;;;;23.13;9.50;;;;;;;20.37;65.53;95196.91;5091584;28;20595;-77
2022/07/23 03:45:04;;;;;;;16.63;10.80;;;;;;;20.38;65.54;95198.50;5092292;28;20528;-78
2022/07/23 03:47:29;;;;;;;13.45;7.75;;;;;;;20.43;65.54;95198.50;5092464;28;20853;-78
2022/07/23 03:49:55;;;;;;;21.85;9.75;;;;;;;20.48;65.43;95191.31;5092098;28;20162;-78
2022/07/23 03:52:20;;;;;;;20.20;6.70;;;;;;;20.61;64.67;95190.78;5092680;28;20974;-77
2022/07/23 03:54:45;;;;;;;14.23;7.75;;;;;;;20.68;64.64;95194.00;5091058;28;20173;-75
2022/07/23 03:57:11;;;;;;;12.63;7.10;;;;;;;20.57;64.56;95159.50;5091021;28;20197;-76
2022/07/23 03:59:36;;;;;;;18.00;11.10;;;;;;;20.91;64.17;95197.25;5091170;28;20173;-76
2022/07/23 04:02:02;;;;;;;20.92;9.88;;;;;;;21.04;64.46;95194.03;5090882;28;20198;-76
2022/07/23 04:04:27;;;;;;;19.58;11.10;;;;;;;21.13;64.14;95197.78;5089844;28;20559;-76
2022/07/23 04:06:52;;;;;;;11.82;6.93;;;;;;;20.88;62.92;95146.94;5091161;28;20284;-76
2022/07/23 04:09:18;;;;;;;11.10;6.03;;;;;;;21.19;62.11;95190.63;5091136;28;20174;-76
2022/07/23 04:11:43;;;;;;;10.40;6.88;;;;;;;21.26;62.53;95199.19;5091121;28;20162;-76
2022/07/23 04:14:09;;;;;;;20.70;8.82;;;;;;;21.23;62.86;95180.94;5091032;28;20644;-76
2022/07/23 04:16:34;;;;;;;12.82;7.20;;;;;;;21.17;63.02;95165.94;5090695;28;20235;-77
2022/07/23 04:19:00;;;;;;;13.65;8.20;;;;;;;21.53;62.71;95198.88;5091653;28;20166;-78
2022/07/23 04:21:26;;;;;;;13.95;6.72;;;;;;;21.75;60.95;95197.47;5091564;28;20197;-78
2022/07/23 04:23:51;;;;;;;13.52;6.82;;;;;;;21.96;60.75;95205.47;5091486;28;20660;-79
2022/07/23 04:26:17;;;;;;;13.70;5.88;;;;;;;22.13;60.26;95204.09;5090883;28;20172;-79
2022/07/23 04:28:42;;;;;;;7.80;6.00;;;;;;;22.37;59.22;95208.81;5090158;28;20272;-80
2022/07/23 04:31:08;;;;;;;8.98;6.47;;;;;;;22.59;58.87;95203.84;5089882;28;20170;-79
2022/07/23 04:33:33;;;;;;;10.27;6.18;;;;;;;22.79;57.97;95203.78;5090100;28;20217;-79
2022/07/23 04:35:59;;;;;;;9.40;5.57;;;;;;;22.91;56.97;95200.75;5090713;28;20644;-78
2022/07/23 04:38:24;;;;;;;9.63;5.57;;;;;;;23.11;57.10;95210.53;5091374;28;20170;-78
2022/07/23 04:40:50;;;;;;;7.30;5.47;;;;;;;23.18;56.38;95193.00;5091229;28;20193;-78
2022/07/23 04:43:15;;;;;;;12.80;6.53;;;;;;;23.40;55.42;95215.94;5091286;28;20169;-79
2022/07/23 04:45:41;;;;;;;10.88;5.68;;;;;;;23.51;54.87;95196.78;5091666;28;20176;-79
2022/07/23 04:48:06;;;;;;;17.25;6.85;;;;;;;23.90;53.92;95211.97;5091740;28;20165;-78
2022/07/23 04:50:31;;;;;;;28.15;16.45;;;;;;;24.18;52.89;95221.09;5091519;28;20170;-78
2022/07/23 04:52:57;;;;;;;11.20;6.45;;;;;;;24.43;52.91;95212.72;5091686;28;20204;-78
2022/07/23 04:55:22;;;;;;;22.50;7.53;;;;;;;24.75;52.46;95212.81;5095598;28;20162;-78
2022/07/23 04:57:48;;;;;;;14.05;8.38;;;;;;;25.09;51.93;95225.28;5095523;28;20158;-78
2022/07/23 05:00:13;;;;;;;12.98;6.22;;;;;;;25.41;51.03;95225.34;5093670;28;20173;-78
2022/07/23 05:02:39;;;;;;;11.60;6.75;;;;;;;25.78;49.82;95229.03;5095139;28;20205;-78
2022/07/23 05:05:05;;;;;;;10.82;6.32;;;;;;;26.15;49.17;95218.09;5095483;28;20173;-78
2022/07/23 05:07:30;;;;;;;12.57;6.60;;;;;;;26.50;47.54;95221.19;5093739;28;20184;-79
2022/07/23 05:09:56;;;;;;;13.15;7.43;;;;;;;26.82;46.78;95214.84;5095162;28;20197;-78
2022/07/23 05:12:21;;;;;;;12.38;7.70;;;;;;;27.10;45.60;95215.59;5094795;28;20261;-78
2022/07/23 05:14:46;;;;;;;13.48;7.15;;;;;;;27.39;44.79;95214.06;5094923;28;20169;-78
2022/07/23 05:17:12;;;;;;;13.98;6.47;;;;;;;27.79;43.74;95206.06;5095050;28;20238;-78
2022/07/23 05:19:37;;;;;;;16.52;6.63;;;;;;;28.27;42.46;95203.44;5094850;28;20176;-77
2022/07/23 05:22:03;;;;;;;12.25;5.30;;;;;;;28.84;41.10;95216.97;5094667;28;20205;-78
2022/07/23 05:24:28;;;;;;;17.45;6.28;;;;;;;29.22;40.42;95217.16;5094738;28;20193;-78
2022/07/23 05:26:54;;;;;;;16.95;7.15;;;;;;;29.48;39.50;95215.25;5094940;28;20166;-78
2022/07/23 05:29:19;;;;;;;11.73;6.80;;;;;;;30.03;39.70;95228.06;5094836;28;20173;-78
2022/07/23 05:31:44;;;;;;;11.48;6.65;;;;;;;30.55;38.22;95230.59;5094873;28;20172;-78
2022/07/23 05:34:10;;;;;;;13.48;6.78;;;;;;;30.84;36.53;95208.81;5094797;28;20409;-79
2022/07/23 05:36:36;;;;;;;11.02;6.28;;;;;;;31.20;36.33;95229.25;5094826;28;20298;-79
2022/07/23 05:39:02;;;;;;;10.88;6.20;;;;;;;31.58;36.46;95232.56;5093517;28;20621;-79
2022/07/23 05:41:28;;;;;;;11.65;6.90;;;;;;;31.99;35.67;95226.28;5094748;28;20284;-82
2022/07/23 05:43:53;;;;;;;14.95;6.45;;;;;;;32.32;34.30;95228.97;5094747;28;20252;-80
2022/07/23 05:46:18;;;;;;;11.73;6.25;;;;;;;32.72;33.30;95228.28;5093486;28;20180;-81
2022/07/23 05:48:45;;;;;;;12.15;5.75;;;;;;;32.92;33.29;95219.97;5094442;28;20173;-79
2022/07/23 05:51:11;;;;;;;11.70;6.30;;;;;;;32.95;33.04;95224.72;5094805;28;20226;-78
2022/07/23 05:53:37;;;;;;;13.07;5.88;;;;;;;32.90;33.64;95224.97;5094452;28;20169;-78
2022/07/23 05:56:02;;;;;;;9.80;5.38;;;;;;;32.77;32.77;95217.16;5094518;28;20181;-78
2022/07/23 05:58:28;;;;;;;11.45;5.47;;;;;;;33.05;31.60;95223.47;5094568;28;20173;-78
2022/07/23 06:00:53;;;;;;;15.27;6.20;;;;;;;33.26;32.07;95228.78;5094387;28;20201;-78
2022/07/23 06:03:19;;;;;;;15.60;6.43;;;;;;;32.91;32.05;95223.84;5095254;28;20530;-77
2022/07/23 06:05:45;;;;;;;13.10;6.07;;;;;;;32.78;32.58;95222.25;5093162;28;20177;-78
2022/07/23 06:08:10;;;;;;;14.55;6.60;;;;;;;32.64;33.20;95199.16;5094037;28;20177;-78
2022/07/23 06:10:36;;;;;;;8.85;5.28;;;;;;;32.40;32.80;95200.78;5094466;28;20230;-78
2022/07/23 06:13:02;;;;;;;11.82;6.35;;;;;;;32.52;33.58;95214.41;5093847;28;20174;-78
2022/07/23 06:15:27;;;;;;;17.50;5.57;;;;;;;32.61;32.88;95214.28;5093798;28;20644;-78
2022/07/23 06:17:52;;;;;;;9.80;5.28;;;;;;;32.56;33.27;95222.69;5093811;28;20666;-78
2022/07/23 06:20:18;;;;;;;13.23;7.40;;;;;;;32.60;33.05;95210.00;5093452;28;20640;-78
2022/07/23 06:22:43;;;;;;;8.73;5.40;;;;;;;32.47;32.77;95217.38;5093532;28;20198;-78
2022/07/23 06:25:09;;;;;;;13.30;5.38;;;;;;;32.20;32.74;95196.22;5093821;28;20571;-78
2022/07/23 06:27:34;;;;;;;11.40;5.45;;;;;;;32.21;34.28;95208.72;5093665;28;20310;-79
2022/07/23 06:30:00;;;;;;;8.60;5.43;;;;;;;32.39;34.25;95214.75;5094296;28;20165;-79
2022/07/23 06:32:25;;;;;;;33.83;7.40;;;;;;;32.59;33.83;95222.03;5093359;28;20286;-78
2022/07/23 06:34:51;;;;;;;14.77;5.72;;;;;;;32.65;32.16;95203.50;5093912;28;20254;-78
2022/07/23 06:37:16;;;;;;;10.38;5.68;;;;;;;32.41;33.05;95213.28;5093670;28;20184;-79
2022/07/23 06:39:42;;;;;;;10.02;5.50;;;;;;;32.11;33.98;95195.50;5093405;28;20177;-79
2022/07/23 06:42:07;;;;;;;9.18;5.60;;;;;;;32.23;33.24;95209.97;5093432;28;20204;-79
2022/07/23 06:44:33;;;;;;;12.18;6.15;;;;;;;32.20;32.54;95215.31;5093755;28;20572;-79
2022/07/23 06:46:58;;;;;;;13.05;5.75;;;;;;;31.65;33.31;95215.75;5093754;28;20722;-79
2022/07/23 06:49:23;;;;;;;21.00;6.90;;;;;;;31.50;33.24;95208.94;5093412;28;20260;-80
2022/07/23 06:51:49;;;;;;;11.77;5.55;;;;;;;31.71;34.18;95212.47;5093188;28;20219;-78
2022/07/23 06:54:14;;;;;;;8.93;5.60;;;;;;;31.94;32.59;95212.06;5093229;28;20224;-79
2022/07/23 06:56:40;;;;;;;12.95;5.82;;;;;;;32.13;33.71;95199.50;5093478;28;20640;-79
2022/07/23 06:59:06;;;;;;;12.52;5.75;;;;;;;32.58;33.71;95204.88;5093175;28;20240;-80
2022/07/23 07:01:31;;;;;;;11.50;5.97;;;;;;;32.78;32.62;95194.97;5093157;28;20193;-79
2022/07/23 07:03:57;;;;;;;11.25;6.72;;;;;;;33.23;32.88;95204.91;5093046;28;20161;-79
2022/07/23 07:06:22;;;;;;;12.18;6.25;;;;;;;33.52;32.78;95212.78;5093044;28;20158;-79
2022/07/23 07:08:47;;;;;;;12.75;6.10;;;;;;;33.57;31.69;95204.31;5087726;28;20645;-79
2022/07/23 07:11:13;;;;;;;12.90;6.28;;;;;;;33.48;31.73;95195.47;5092740;28;20178;-80
2022/07/23 07:13:38;;;;;;;13.55;6.40;;;;;;;33.55;31.90;95186.69;5090878;28;20286;-80
2022/07/23 07:16:04;;;;;;;11.52;6.00;;;;;;;33.40;31.50;95190.97;5083949;28;20843;-79
2022/07/23 07:18:30;;;;;;;8.82;5.35;;;;;;;33.59;31.62;95198.50;5085260;28;21452;-80
2022/07/23 07:20:56;;;;;;;13.13;6.03;;;;;;;33.58;32.11;95194.19;5090933;28;20687;-78
2022/07/23 07:23:22;;;;;;;9.45;5.95;;;;;;;33.69;31.85;95176.16;5091334;28;20256;-80
2022/07/23 07:25:47;;;;;;;8.98;5.75;;;;;;;33.93;31.01;95197.88;5091332;28;20326;-80
2022/07/23 07:28:13;;;;;;;11.00;7.28;;;;;;;33.83;30.85;95198.41;5086853;28;20165;-79
2022/07/23 07:30:38;;;;;;;14.20;6.53;;;;;;;33.81;31.14;95195.25;5089859;28;20548;-79
2022/07/23 07:33:04;;;;;;;15.52;6.07;;;;;;;33.90;30.04;95186.88;5089765;28;20696;-79
2022/07/23 07:35:31;;;;;;;10.70;5.63;;;;;;;33.78;31.30;95179.53;5088485;28;20680;-80
2022/07/23 07:37:56;;;;;;;12.80;6.30;;;;;;;33.25;30.95;95162.47;5090994;28;20174;-79
2022/07/23 07:40:22;;;;;;;13.63;6.07;;;;;;;33.16;31.71;95171.91;5089954;28;20616;-80
2022/07/23 07:42:49;;;;;;;14.93;7.43;;;;;;;33.14;31.35;95182.38;5089990;28;20207;-80
2022/07/23 07:45:15;;;;;;;11.70;6.25;;;;;;;32.86;33.07;95179.63;5086739;28;20182;-79
2022/07/23 07:47:41;;;;;;;13.55;5.63;;;;;;;33.36;32.65;95179.16;5090448;28;20211;-80
2022/07/23 07:50:07;;;;;;;9.68;5.75;;;;;;;33.76;32.43;95190.03;5089861;28;20186;-78
2022/07/23 07:52:35;;;;;;;12.07;6.13;;;;;;;34.34;30.67;95177.47;5086944;28;20180;-77
2022/07/23 07:55:03;;;;;;;9.63;6.18;;;;;;;34.57;29.27;95183.09;5087390;28;20181;-79
2022/07/23 07:57:29;;;;;;;13.95;6.75;;;;;;;34.62;29.87;95177.34;5090685;28;20622;-79
2022/07/23 07:59:54;;;;;;;17.02;6.38;;;;;;;34.78;29.02;95169.91;5085951;28;20189;-78
2022/07/23 08:02:20;;;;;;;11.25;5.93;;;;;;;34.67;29.75;95176.28;5087635;28;20201;-79
2022/07/23 08:04:45;;;;;;;9.25;5.55;;;;;;;34.50;30.46;95180.19;5081279;28;20185;-77
2022/07/23 08:07:11;;;;;;;13.45;6.45;;;;;;;34.25;29.86;95168.63;5084242;28;20188;-77
2022/07/23 08:09:36;;;;;;;11.07;6.13;;;;;;;33.89;29.93;95171.63;5081639;28;20899;-77
2022/07/23 08:12:02;;;;;;;11.77;5.60;;;;;;;33.72;30.96;95159.88;5084756;28;20272;-77
2022/07/23 08:14:27;;;;;;;14.15;5.78;;;;;;;33.86;30.73;95175.06;5080458;28;20173;-78
2022/07/23 08:16:52;;;;;;;11.60;5.45;;;;;;;34.07;29.76;95162.75;5086259;28;20181;-78
2022/07/23 08:19:18;;;;;;;13.70;6.15;;;;;;;34.17;30.48;95150.44;5089196;28;20255;-79
2022/07/23 08:21:43;;;;;;;16.42;6.47;;;;;;;34.71;30.59;95169.72;5086129;28;20213;-78
2022/07/23 08:24:09;;;;;;;11.50;6.70;;;;;;;35.24;30.48;95166.59;5084058;28;20170;-77
2022/07/23 08:26:34;;;;;;;15.20;7.32;;;;;;;35.52;28.92;95167.16;5088250;28;20231;-80
2022/07/23 08:28:59;;;;;;;11.68;5.68;;;;;;;35.50;28.84;95159.31;5088536;28;20189;-81
2022/07/23 08:31:25;;;;;;;8.18;6.20;;;;;;;35.49;29.08;95156.94;5082980;28;20173;-80
2022/07/23 08:33:52;;;;;;;11.02;6.30;;;;;;;35.71;28.83;95153.44;5082803;28;20249;-82
2022/07/23 08:36:17;;;;;;;12.68;6.53;;;;;;;36.00;28.25;95156.69;5083382;28;20231;-80
2022/07/23 08:38:43;;;;;;;11.77;6.60;;;;;;;35.64;28.42;95141.53;5087420;28;20185;-79
2022/07/23 08:41:09;;;;;;;10.68;5.50;;;;;;;35.36;29.15;95142.59;5091127;28;20197;-80
2022/07/23 08:43:35;;;;;;;15.65;5.53;;;;;;;35.41;28.65;95133.28;5090849;28;20200;-81
2022/07/23 08:46:02;;;;;;;10.80;5.65;;;;;;;35.56;28.30;95148.84;5090324;28;20169;-79
2022/07/23 08:48:30;;;;;;;12.77;6.07;;;;;;;35.68;27.75;95147.88;5089277;28;20174;-79
2022/07/23 08:50:58;;;;;;;14.18;6.38;;;;;;;35.55;28.24;95150.78;5091101;28;20173;-80
2022/07/23 08:53:25;;;;;;;10.80;5.80;;;;;;;35.44;28.28;95147.06;5084512;28;20197;-78
2022/07/23 08:55:52;;;;;;;17.25;5.95;;;;;;;35.17;28.44;95139.84;5088329;28;20467;-79
2022/07/23 08:58:19;;;;;;;13.55;6.07;;;;;;;35.15;28.47;95131.19;5088592;28;20177;-80
2022/07/23 09:00:46;;;;;;;9.70;6.50;;;;;;;34.95;28.95;95118.63;5083657;28;20189;-79
2022/07/23 09:03:34;;;;;;;9.88;6.13;;;;;;;35.38;29.64;95143.00;5083969;28;20185;-78
2022/07/23 09:06:01;;;;;;;11.65;5.28;;;;;;;35.50;27.79;95142.06;5091004;28;20185;-79
2022/07/23 09:08:42;;;;;;;12.63;5.20;;;;;;;35.33;29.02;95139.78;5092183;28;20269;-79
2022/07/23 09:11:17;;;;;;;11.23;6.18;;;;;;;34.80;31.08;95126.56;5090032;28;20162;-79
2022/07/23 09:13:48;;;;;;;14.43;6.30;;;;;;;34.74;31.68;95138.94;5091083;28;20212;-84
2022/07/23 09:16:25;;;;;;;10.93;5.10;;;;;;;34.87;29.03;95122.38;5086625;28;20660;-78
2022/07/23 09:18:54;;;;;;;8.52;5.28;;;;;;;34.85;29.77;95135.66;5090103;28;20205;-78
2022/07/23 09:21:28;;;;;;;10.52;5.90;;;;;;;34.89;29.89;95120.88;5088801;28;20201;-78
2022/07/23 09:24:08;;;;;;;9.30;5.35;;;;;;;35.10;28.87;95132.28;5090311;28;20637;-78
2022/07/23 09:26:33;;;;;;;6.75;4.78;;;;;;;35.11;29.74;95131.13;5085187;28;20647;-78
2022/07/23 09:29:00;;;;;;;17.70;5.80;;;;;;;35.02;28.64;95124.28;5087735;28;20261;-78
2022/07/23 09:31:33;;;;;;;14.80;6.10;;;;;;;35.05;29.02;95126.28;5083816;28;20186;-80
2022/07/23 09:34:23;;;;;;;11.45;5.07;;;;;;;35.01;29.45;95120.75;5084709;28;20229;-78
2022/07/23 09:36:50;;;;;;;7.60;4.32;;;;;;;35.13;29.69;95126.06;5087682;28;20178;-78
2022/07/23 09:39:25;;;;;;;10.30;4.60;;;;;;;35.31;26.81;95126.44;5084254;28;20544;-78
2022/07/23 09:41:50;;;;;;;7.75;5.30;;;;;;;35.22;27.75;95109.41;5084880;28;20197;-78
2022/07/23 09:44:18;;;;;;;11.70;5.13;;;;;;;35.20;28.45;95112.50;5089535;28;20567;-78
2022/07/23 09:46:46;;;;;;;15.73;5.70;;;;;;;34.98;26.93;95105.03;5086543;28;20178;-77
2022/07/23 09:49:22;;;;;;;9.77;4.88;;;;;;;35.00;26.79;95101.94;5089612;28;20185;-77
2022/07/23 09:51:56;;;;;;;8.50;4.95;;;;;;;34.93;26.95;95110.81;5085146;28;20173;-77
2022/07/23 09:54:42;;;;;;;9.73;4.90;;;;;;;34.90;26.49;95111.53;5083722;28;20185;-77
2022/07/23 09:57:15;;;;;;;9.38;4.95;;;;;;;34.88;25.25;95102.06;5080282;28;20288;-78
2022/07/23 09:59:42;;;;;;;9.38;4.70;;;;;;;34.84;25.78;95098.50;5089523;28;20647;-77
2022/07/23 10:02:10;;;;;;;8.00;5.35;;;;;;;34.87;26.18;95100.50;5080342;28;20194;-78
2022/07/23 10:04:36;;;;;;;10.63;5.00;;;;;;;35.02;28.00;95091.44;5085865;28;20184;-80
2022/07/23 10:07:05;;;;;;;17.95;4.95;;;;;;;35.08;27.36;95079.03;5078656;28;20264;-78
2022/07/23 10:09:33;;;;;;;9.90;5.22;;;;;;;35.29;27.33;95082.19;5086253;28;20181;-80
2022/07/23 10:12:08;;;;;;;9.43;5.18;;;;;;;35.54;26.78;95094.41;5087137;28;21529;-78
2022/07/23 10:14:35;;;;;;;12.68;5.30;;;;;;;35.67;26.97;95092.28;5081299;28;20261;-78
2022/07/23 10:17:03;;;;;;;11.15;5.30;;;;;;;35.72;27.41;95072.81;5081332;28;20185;-78
2022/07/23 10:19:29;;;;;;;12.15;5.47;;;;;;;35.76;26.83;95064.66;5086159;28;20290;-80
2022/07/23 10:22:01;;;;;;;8.68;4.85;;;;;;;35.90;25.90;95084.06;5089212;28;21100;-78
2022/07/23 10:24:58;;;;;;;17.08;5.30;;;;;;;35.99;26.61;95084.63;5084591;28;20184;-77
2022/07/23 10:27:45;;;;;;;9.38;4.93;;;;;;;36.11;25.78;95081.69;5088577;28;20182;-78
2022/07/23 10:30:28;;;;;;;17.73;4.78;;;;;;;35.83;24.63;95064.78;5089017;28;20180;-79
2022/07/23 10:32:57;;;;;;;13.23;4.70;;;;;;;35.84;25.03;95071.84;5090020;28;20285;-77
2022/07/23 10:35:42;;;;;;;13.25;4.80;;;;;;;35.64;23.41;95073.81;5087072;28;20311;-78
2022/07/23 10:38:18;;;;;;;8.45;4.70;;;;;;;35.64;24.75;95070.28;5087150;28;20185;-78
2022/07/23 10:40:58;;;;;;;12.70;4.30;;;;;;;35.51;23.33;95047.78;5077393;28;20190;-77
2022/07/23 10:43:25;;;;;;;7.60;4.82;;;;;;;35.64;23.76;95064.81;5087489;28;20185;-77
2022/07/23 10:45:51;;;;;;;11.25;4.32;;;;;;;35.46;23.69;95054.34;5080863;28;20185;-77
2022/07/23 10:48:16;;;;;;;11.95;4.85;;;;;;;35.49;25.18;95055.56;5085139;28;20189;-78
2022/07/23 10:50:43;;;;;;;14.75;5.00;;;;;;;35.60;24.76;95053.00;5082537;28;20173;-77
2022/07/23 10:53:12;;;;;;;9.38;4.22;;;;;;;35.62;23.65;95045.22;5087560;28;20518;-77
2022/07/23 10:55:37;;;;;;;8.52;4.70;;;;;;;35.70;23.81;95046.91;5080534;28;20606;-77
2022/07/23 10:58:05;;;;;;;14.05;4.88;;;;;;;35.61;22.02;95022.50;5081071;28;20182;-76
2022/07/23 11:00:35;;;;;;;6.80;3.78;;;;;;;35.69;20.86;95040.66;5085056;28;20189;-76
2022/07/23 11:03:28;;;;;;;10.48;4.53;;;;;;;35.64;21.15;95040.16;5081463;28;20263;-77
2022/07/23 11:05:54;;;;;;;7.85;4.53;;;;;;;35.68;20.65;95032.78;5082257;28;20180;-76
2022/07/23 11:08:20;;;;;;;8.63;4.55;;;;;;;35.72;20.12;95034.44;5075926;28;20177;-77
2022/07/23 11:10:49;;;;;;;9.65;3.70;;;;;;;35.85;20.56;95027.63;5079938;28;20178;-78
2022/07/23 11:13:21;;;;;;;7.50;3.75;;;;;;;35.99;19.35;95037.22;5082033;28;20185;-77
2022/07/23 11:16:04;;;;;;;13.57;4.13;;;;;;;36.08;18.43;95024.03;5084343;28;20205;-78
2022/07/23 11:18:42;;;;;;;14.20;3.47;;;;;;;36.07;19.36;95027.94;5080593;28;20166;-78
2022/07/23 11:21:31;;;;;;;12.65;3.90;;;;;;;36.12;18.88;95031.16;5091104;28;20197;-79
2022/07/23 11:23:59;;;;;;;12.95;4.35;;;;;;;36.00;17.75;95014.91;5087898;28;20322;-77
2022/07/23 11:26:40;;;;;;;8.30;4.30;;;;;;;35.96;18.60;95025.06;5091696;28;20729;-80